sensor_id;sensor_type;location;lat;lon;timestamp;pressure;altitude;pressure_sealevel;temperature;humidity
80184;BME280;69682;52.138;5.440;2023-11-18T00:01:49;102453.72;;;4.36;94.33
80184;BME280;69682;52.138;5.440;2023-11-18T00:04:17;102446.66;;;4.35;94.19
80184;BME280;69682;52.138;5.440;2023-11-18T00:06:44;102450.19;;;4.36;94.17
80184;BME280;69682;52.138;5.440;2023-11-18T00:09:11;102450.22;;;4.34;93.88
80184;BME280;69682;52.138;5.440;2023-11-18T00:11:41;102452.88;;;4.34;93.53
80184;BME280;69682;52.138;5.440;2023-11-18T00:14:11;102454.66;;;4.33;93.87
80184;BME280;69682;52.138;5.440;2023-11-18T00:16:38;102455.56;;;4.32;93.65
80184;BME280;69682;52.138;5.440;2023-11-18T00:19:05;102446.75;;;4.32;93.29
80184;BME280;69682;52.138;5.440;2023-11-18T00:21:32;102451.25;;;4.28;93.30
80184;BME280;69682;52.138;5.440;2023-11-18T00:23:59;102455.63;;;4.29;93.38
80184;BME280;69682;52.138;5.440;2023-11-18T00:26:25;102455.63;;;4.29;93.18
80184;BME280;69682;52.138;5.440;2023-11-18T00:28:52;102457.34;;;4.30;93.44
80184;BME280;69682;52.138;5.440;2023-11-18T00:31:19;102448.56;;;4.30;93.24
80184;BME280;69682;52.138;5.440;2023-11-18T00:33:45;102446.81;;;4.30;93.29
80184;BME280;69682;52.138;5.440;2023-11-18T00:36:12;102439.75;;;4.31;93.02
80184;BME280;69682;52.138;5.440;2023-11-18T00:38:38;102436.19;;;4.32;93.40
80184;BME280;69682;52.138;5.440;2023-11-18T00:41:07;102433.56;;;4.32;93.43
80184;BME280;69682;52.138;5.440;2023-11-18T00:43:33;102426.63;;;4.29;93.02
80184;BME280;69682;52.138;5.440;2023-11-18T00:46:00;102430.97;;;4.30;93.20
80184;BME280;69682;52.138;5.440;2023-11-18T00:48:27;102437.09;;;4.31;93.29
80184;BME280;69682;52.138;5.440;2023-11-18T00:50:54;102442.47;;;4.28;93.23
80184;BME280;69682;52.138;5.440;2023-11-18T00:53:22;102440.75;;;4.25;92.92
80184;BME280;69682;52.138;5.440;2023-11-18T00:55:49;102439.03;;;4.24;93.02
80184;BME280;69682;52.138;5.440;2023-11-18T00:58:16;102440.81;;;4.24;92.81
80184;BME280;69682;52.138;5.440;2023-11-18T01:00:42;102452.25;;;4.23;92.85
80184;BME280;69682;52.138;5.440;2023-11-18T01:03:09;102458.38;;;4.23;93.13
80184;BME280;69682;52.138;5.440;2023-11-18T01:05:36;102463.72;;;4.22;92.87
80184;BME280;69682;52.138;5.440;2023-11-18T01:08:04;102469.94;;;4.19;92.55
80184;BME280;69682;52.138;5.440;2023-11-18T01:10:31;102465.59;;;4.17;92.48
80184;BME280;69682;52.138;5.440;2023-11-18T01:12:58;102463.78;;;4.19;92.40
80184;BME280;69682;52.138;5.440;2023-11-18T01:15:25;102459.38;;;4.19;92.80
80184;BME280;69682;52.138;5.440;2023-11-18T01:17:51;102465.56;;;4.18;92.96
80184;BME280;69682;52.138;5.440;2023-11-18T01:20:18;102473.44;;;4.20;92.40
80184;BME280;69682;52.138;5.440;2023-11-18T01:22:48;102468.13;;;4.21;92.73
80184;BME280;69682;52.138;5.440;2023-11-18T01:25:16;102470.78;;;4.20;92.78
80184;BME280;69682;52.138;5.440;2023-11-18T01:27:45;102475.25;;;4.18;92.25
80184;BME280;69682;52.138;5.440;2023-11-18T01:30:15;102468.19;;;4.18;92.86
80184;BME280;69682;52.138;5.440;2023-11-18T01:32:42;102470.84;;;4.18;92.76
80184;BME280;69682;52.138;5.440;2023-11-18T01:35:09;102463.81;;;4.17;92.91
80184;BME280;69682;52.138;5.440;2023-11-18T01:37:38;102460.28;;;4.18;92.42
80184;BME280;69682;52.138;5.440;2023-11-18T01:40:05;102464.72;;;4.18;92.71
80184;BME280;69682;52.138;5.440;2023-11-18T01:42:33;102455.03;;;4.17;92.62
80184;BME280;69682;52.138;5.440;2023-11-18T01:45:00;102457.72;;;4.15;93.03
80184;BME280;69682;52.138;5.440;2023-11-18T01:47:32;102463.88;;;4.16;92.95
80184;BME280;69682;52.138;5.440;2023-11-18T01:50:01;102451.63;;;4.13;93.05
80184;BME280;69682;52.138;5.440;2023-11-18T01:52:29;102452.47;;;4.14;93.55
80184;BME280;69682;52.138;5.440;2023-11-18T01:54:58;102453.31;;;4.16;93.53
80184;BME280;69682;52.138;5.440;2023-11-18T01:57:25;102449.75;;;4.17;93.96
80184;BME280;69682;52.138;5.440;2023-11-18T01:59:53;102448.91;;;4.16;94.03
80184;BME280;69682;52.138;5.440;2023-11-18T02:02:20;102455.94;;;4.16;94.20
80184;BME280;69682;52.138;5.440;2023-11-18T02:04:48;102454.19;;;4.16;94.60
80184;BME280;69682;52.138;5.440;2023-11-18T02:07:15;102452.41;;;4.17;94.44
80184;BME280;69682;52.138;5.440;2023-11-18T02:09:42;102450.63;;;4.17;94.52
80184;BME280;69682;52.138;5.440;2023-11-18T02:12:31;102455.00;;;4.18;95.13
80184;BME280;69682;52.138;5.440;2023-11-18T02:15:05;102459.44;;;4.18;95.00
80184;BME280;69682;52.138;5.440;2023-11-18T02:17:38;102462.00;;;4.19;95.46
80184;BME280;69682;52.138;5.440;2023-11-18T02:20:06;102464.66;;;4.19;95.78
80184;BME280;69682;52.138;5.440;2023-11-18T02:22:43;102455.81;;;4.20;95.22
80184;BME280;69682;52.138;5.440;2023-11-18T02:25:17;102455.81;;;4.20;95.68
80184;BME280;69682;52.138;5.440;2023-11-18T02:27:47;102469.84;;;4.22;95.38
80184;BME280;69682;52.138;5.440;2023-11-18T02:30:14;102464.59;;;4.22;95.81
80184;BME280;69682;52.138;5.440;2023-11-18T02:32:48;102457.59;;;4.21;95.53
80184;BME280;69682;52.138;5.440;2023-11-18T02:35:28;102459.34;;;4.21;95.45
80184;BME280;69682;52.138;5.440;2023-11-18T02:37:55;102458.44;;;4.22;95.91
80184;BME280;69682;52.138;5.440;2023-11-18T02:40:32;102447.88;;;4.22;95.78
80184;BME280;69682;52.138;5.440;2023-11-18T02:43:00;102447.88;;;4.22;95.74
80184;BME280;69682;52.138;5.440;2023-11-18T02:45:28;102447.91;;;4.20;95.88
80184;BME280;69682;52.138;5.440;2023-11-18T02:47:54;102453.19;;;4.20;95.70
80184;BME280;69682;52.138;5.440;2023-11-18T02:50:25;102449.69;;;4.20;96.12
80184;BME280;69682;52.138;5.440;2023-11-18T02:52:51;102446.19;;;4.19;95.56
80184;BME280;69682;52.138;5.440;2023-11-18T02:55:18;102432.06;;;4.22;96.03
80184;BME280;69682;52.138;5.440;2023-11-18T02:57:47;102434.66;;;4.23;95.98
80184;BME280;69682;52.138;5.440;2023-11-18T03:00:14;102425.88;;;4.23;96.00
80184;BME280;69682;52.138;5.440;2023-11-18T03:02:59;102422.34;;;4.24;96.11
80184;BME280;69682;52.138;5.440;2023-11-18T03:05:25;102415.25;;;4.26;95.98
80184;BME280;69682;52.138;5.440;2023-11-18T03:07:52;102427.56;;;4.25;96.20
80184;BME280;69682;52.138;5.440;2023-11-18T03:10:21;102425.00;;;4.24;96.10
80184;BME280;69682;52.138;5.440;2023-11-18T03:12:52;102424.00;;;4.26;96.24
80184;BME280;69682;52.138;5.440;2023-11-18T03:15:20;102419.59;;;4.28;96.42
80184;BME280;69682;52.138;5.440;2023-11-18T03:17:49;102422.22;;;4.28;96.23
80184;BME280;69682;52.138;5.440;2023-11-18T03:20:18;102423.13;;;4.27;96.17
80184;BME280;69682;52.138;5.440;2023-11-18T03:22:46;102422.28;;;4.25;96.16
80184;BME280;69682;52.138;5.440;2023-11-18T03:25:13;102412.59;;;4.27;96.25
80184;BME280;69682;52.138;5.440;2023-11-18T03:27:40;102412.53;;;4.29;96.26
80184;BME280;69682;52.138;5.440;2023-11-18T03:30:07;102406.38;;;4.28;96.05
80184;BME280;69682;52.138;5.440;2023-11-18T03:32:35;102400.28;;;4.26;96.07
80184;BME280;69682;52.138;5.440;2023-11-18T03:35:03;102405.59;;;4.25;95.90
80184;BME280;69682;52.138;5.440;2023-11-18T03:37:30;102407.38;;;4.24;95.98
80184;BME280;69682;52.138;5.440;2023-11-18T03:39:58;102399.41;;;4.26;96.22
80184;BME280;69682;52.138;5.440;2023-11-18T03:42:24;102388.00;;;4.25;96.15
80184;BME280;69682;52.138;5.440;2023-11-18T03:44:51;102387.06;;;4.28;96.45
80184;BME280;69682;52.138;5.440;2023-11-18T03:47:18;102390.53;;;4.30;96.27
80184;BME280;69682;52.138;5.440;2023-11-18T03:49:44;102386.06;;;4.32;96.58
80184;BME280;69682;52.138;5.440;2023-11-18T03:52:11;102377.25;;;4.33;96.39
80184;BME280;69682;52.138;5.440;2023-11-18T03:54:38;102372.84;;;4.33;96.27
80184;BME280;69682;52.138;5.440;2023-11-18T03:57:05;102363.91;;;4.39;96.54
80184;BME280;69682;52.138;5.440;2023-11-18T03:59:31;102363.91;;;4.39;96.22
80184;BME280;69682;52.138;5.440;2023-11-18T04:01:58;102354.25;;;4.38;96.09
80184;BME280;69682;52.138;5.440;2023-11-18T04:04:25;102355.94;;;4.41;96.29
80184;BME280;69682;52.138;5.440;2023-11-18T04:06:51;102347.13;;;4.42;96.40
80184;BME280;69682;52.138;5.440;2023-11-18T04:09:18;102344.50;;;4.42;96.25
80184;BME280;69682;52.138;5.440;2023-11-18T04:11:44;102324.34;;;4.39;96.20
80184;BME280;69682;52.138;5.440;2023-11-18T04:14:12;102334.81;;;4.42;96.42
80184;BME280;69682;52.138;5.440;2023-11-18T04:16:39;102339.16;;;4.43;96.44
80184;BME280;69682;52.138;5.440;2023-11-18T04:19:05;102334.81;;;4.42;96.26
80184;BME280;69682;52.138;5.440;2023-11-18T04:21:33;102349.72;;;4.43;96.38
80184;BME280;69682;52.138;5.440;2023-11-18T04:23:59;102341.88;;;4.40;96.39
80184;BME280;69682;52.138;5.440;2023-11-18T04:26:26;102326.88;;;4.42;96.38
80184;BME280;69682;52.138;5.440;2023-11-18T04:28:52;102320.66;;;4.45;96.41
80184;BME280;69682;52.138;5.440;2023-11-18T04:31:19;102307.56;;;4.42;96.01
80184;BME280;69682;52.138;5.440;2023-11-18T04:33:47;102311.91;;;4.43;96.13
80184;BME280;69682;52.138;5.440;2023-11-18T04:36:14;102309.34;;;4.41;96.36
80184;BME280;69682;52.138;5.440;2023-11-18T04:38:42;102307.56;;;4.42;96.03
80184;BME280;69682;52.138;5.440;2023-11-18T04:41:10;102299.63;;;4.42;95.98
80184;BME280;69682;52.138;5.440;2023-11-18T04:43:36;102301.38;;;4.43;95.48
80184;BME280;69682;52.138;5.440;2023-11-18T04:46:11;102296.00;;;4.46;95.35
80184;BME280;69682;52.138;5.440;2023-11-18T04:48:37;102292.44;;;4.47;95.96
80184;BME280;69682;52.138;5.440;2023-11-18T04:51:07;102286.19;;;4.51;96.08
80184;BME280;69682;52.138;5.440;2023-11-18T04:53:34;102282.69;;;4.50;96.16
80184;BME280;69682;52.138;5.440;2023-11-18T04:56:01;102286.13;;;4.52;96.23
80184;BME280;69682;52.138;5.440;2023-11-18T04:58:27;102287.81;;;4.55;96.01
80184;BME280;69682;52.138;5.440;2023-11-18T05:00:54;102278.19;;;4.54;96.25
80184;BME280;69682;52.138;5.440;2023-11-18T05:03:21;102282.53;;;4.55;95.67
80184;BME280;69682;52.138;5.440;2023-11-18T05:05:48;102287.81;;;4.55;96.22
80184;BME280;69682;52.138;5.440;2023-11-18T05:08:20;102286.09;;;4.54;95.89
80184;BME280;69682;52.138;5.440;2023-11-18T05:10:48;102284.28;;;4.56;95.88
80184;BME280;69682;52.138;5.440;2023-11-18T05:13:16;102292.16;;;4.58;96.20
80184;BME280;69682;52.138;5.440;2023-11-18T05:15:44;102290.38;;;4.58;96.04
80184;BME280;69682;52.138;5.440;2023-11-18T05:18:14;102284.22;;;4.59;96.43
80184;BME280;69682;52.138;5.440;2023-11-18T05:20:43;102277.16;;;4.60;96.49
80184;BME280;69682;52.138;5.440;2023-11-18T05:23:10;102270.13;;;4.59;96.76
80184;BME280;69682;52.138;5.440;2023-11-18T05:25:42;102271.88;;;4.60;96.34
80184;BME280;69682;52.138;5.440;2023-11-18T05:28:12;102258.69;;;4.60;96.70
80184;BME280;69682;52.138;5.440;2023-11-18T05:30:41;102257.81;;;4.59;96.40
80184;BME280;69682;52.138;5.440;2023-11-18T05:33:10;102262.19;;;4.60;96.30
80184;BME280;69682;52.138;5.440;2023-11-18T05:35:41;102256.84;;;4.62;96.53
80184;BME280;69682;52.138;5.440;2023-11-18T05:38:19;102260.41;;;4.61;96.24
80184;BME280;69682;52.138;5.440;2023-11-18T05:40:48;102258.63;;;4.61;95.98
80184;BME280;69682;52.138;5.440;2023-11-18T05:43:24;102267.41;;;4.62;96.08
80184;BME280;69682;52.138;5.440;2023-11-18T05:45:53;102258.59;;;4.63;96.20
80184;BME280;69682;52.138;5.440;2023-11-18T05:48:39;102258.59;;;4.63;96.00
80184;BME280;69682;52.138;5.440;2023-11-18T05:51:10;102244.38;;;4.67;96.65
80184;BME280;69682;52.138;5.440;2023-11-18T05:53:40;102243.50;;;4.68;96.76
80184;BME280;69682;52.138;5.440;2023-11-18T05:56:08;102249.56;;;4.70;96.47
80184;BME280;69682;52.138;5.440;2023-11-18T05:58:35;102235.41;;;4.72;96.42
80184;BME280;69682;52.138;5.440;2023-11-18T06:01:02;102231.00;;;4.73;96.64
80184;BME280;69682;52.138;5.440;2023-11-18T06:03:28;102216.81;;;4.77;96.48
80184;BME280;69682;52.138;5.440;2023-11-18T06:05:55;102234.47;;;4.75;96.75
80184;BME280;69682;52.138;5.440;2023-11-18T06:08:22;102229.22;;;4.73;96.55
80184;BME280;69682;52.138;5.440;2023-11-18T06:10:49;102234.56;;;4.72;96.35
80184;BME280;69682;52.138;5.440;2023-11-18T06:13:18;102229.19;;;4.75;96.09
80184;BME280;69682;52.138;5.440;2023-11-18T06:15:44;102222.13;;;4.75;96.11
80184;BME280;69682;52.138;5.440;2023-11-18T06:18:11;102216.84;;;4.75;96.50
80184;BME280;69682;52.138;5.440;2023-11-18T06:20:38;102215.06;;;4.76;96.25
80184;BME280;69682;52.138;5.440;2023-11-18T06:23:04;102216.81;;;4.77;96.20
80184;BME280;69682;52.138;5.440;2023-11-18T06:25:31;102219.44;;;4.77;96.31
80184;BME280;69682;52.138;5.440;2023-11-18T06:27:58;102220.31;;;4.77;96.06
80184;BME280;69682;52.138;5.440;2023-11-18T06:30:24;102219.44;;;4.77;96.24
80184;BME280;69682;52.138;5.440;2023-11-18T06:32:52;102220.31;;;4.77;95.77
80184;BME280;69682;52.138;5.440;2023-11-18T06:35:19;102208.84;;;4.78;96.26
80184;BME280;69682;52.138;5.440;2023-11-18T06:37:47;102203.56;;;4.78;95.74
80184;BME280;69682;52.138;5.440;2023-11-18T06:40:14;102205.31;;;4.80;95.53
80184;BME280;69682;52.138;5.440;2023-11-18T06:42:45;102209.69;;;4.79;95.67
80184;BME280;69682;52.138;5.440;2023-11-18T06:45:15;102211.44;;;4.80;95.47
80184;BME280;69682;52.138;5.440;2023-11-18T06:47:41;102218.44;;;4.81;95.32
80184;BME280;69682;52.138;5.440;2023-11-18T06:50:12;102221.94;;;4.82;95.16
80184;BME280;69682;52.138;5.440;2023-11-18T06:52:42;102221.06;;;4.83;94.89
80184;BME280;69682;52.138;5.440;2023-11-18T06:55:14;102208.72;;;4.83;94.71
80184;BME280;69682;52.138;5.440;2023-11-18T06:57:41;102222.69;;;4.85;95.28
80184;BME280;69682;52.138;5.440;2023-11-18T07:00:10;102221.84;;;4.85;94.65
80184;BME280;69682;52.138;5.440;2023-11-18T07:02:40;102224.44;;;4.86;94.89
80184;BME280;69682;52.138;5.440;2023-11-18T07:05:07;102227.09;;;4.86;94.99
80184;BME280;69682;52.138;5.440;2023-11-18T07:07:33;102220.03;;;4.87;95.12
80184;BME280;69682;52.138;5.440;2023-11-18T07:10:00;102219.13;;;4.88;94.89
80184;BME280;69682;52.138;5.440;2023-11-18T07:12:26;102212.88;;;4.90;95.31
80184;BME280;69682;52.138;5.440;2023-11-18T07:14:53;102215.47;;;4.92;95.22
80184;BME280;69682;52.138;5.440;2023-11-18T07:17:20;102220.69;;;4.93;95.52
80184;BME280;69682;52.138;5.440;2023-11-18T07:19:47;102211.97;;;4.91;95.37
80184;BME280;69682;52.138;5.440;2023-11-18T07:22:13;102225.97;;;4.93;95.39
80184;BME280;69682;52.138;5.440;2023-11-18T07:24:41;102223.41;;;4.92;95.08
80184;BME280;69682;52.138;5.440;2023-11-18T07:27:07;102229.56;;;4.92;95.14
80184;BME280;69682;52.138;5.440;2023-11-18T07:29:37;102233.91;;;4.93;95.17
80184;BME280;69682;52.138;5.440;2023-11-18T07:32:04;102235.69;;;4.93;94.97
80184;BME280;69682;52.138;5.440;2023-11-18T07:34:32;102235.66;;;4.94;95.32
80184;BME280;69682;52.138;5.440;2023-11-18T07:37:01;102232.09;;;4.95;95.32
80184;BME280;69682;52.138;5.440;2023-11-18T07:39:28;102246.13;;;4.97;95.55
80184;BME280;69682;52.138;5.440;2023-11-18T07:42:11;102253.16;;;4.97;95.11
80184;BME280;69682;52.138;5.440;2023-11-18T07:44:38;102248.88;;;4.94;94.98
80184;BME280;69682;52.138;5.440;2023-11-18T07:47:07;102243.59;;;4.94;95.12
80184;BME280;69682;52.138;5.440;2023-11-18T07:49:34;102236.41;;;4.98;94.99
80184;BME280;69682;52.138;5.440;2023-11-18T07:52:02;102226.81;;;4.95;95.39
80184;BME280;69682;52.138;5.440;2023-11-18T07:54:29;102222.38;;;4.96;95.62
80184;BME280;69682;52.138;5.440;2023-11-18T07:56:56;102217.97;;;4.96;94.98
80184;BME280;69682;52.138;5.440;2023-11-18T07:59:26;102210.09;;;4.95;95.06
80184;BME280;69682;52.138;5.440;2023-11-18T08:01:53;102214.47;;;4.96;94.88
80184;BME280;69682;52.138;5.440;2023-11-18T08:04:20;102203.06;;;4.94;94.73
80184;BME280;69682;52.138;5.440;2023-11-18T08:06:49;102196.91;;;4.95;94.80
80184;BME280;69682;52.138;5.440;2023-11-18T08:09:15;102194.25;;;4.95;94.82
80184;BME280;69682;52.138;5.440;2023-11-18T08:11:49;102191.53;;;4.98;94.95
80184;BME280;69682;52.138;5.440;2023-11-18T08:14:15;102184.50;;;4.97;94.61
80184;BME280;69682;52.138;5.440;2023-11-18T08:16:42;102187.09;;;4.98;94.90
80184;BME280;69682;52.138;5.440;2023-11-18T08:19:09;102187.00;;;5.01;94.80
80184;BME280;69682;52.138;5.440;2023-11-18T08:21:36;102178.16;;;5.03;94.71
80184;BME280;69682;52.138;5.440;2023-11-18T08:24:07;102178.13;;;5.04;94.64
80184;BME280;69682;52.138;5.440;2023-11-18T08:26:35;102172.84;;;5.04;94.28
80184;BME280;69682;52.138;5.440;2023-11-18T08:29:02;102178.97;;;5.05;94.05
80184;BME280;69682;52.138;5.440;2023-11-18T08:31:29;102178.94;;;5.06;94.02
80184;BME280;69682;52.138;5.440;2023-11-18T08:33:56;102168.28;;;5.09;94.44
80184;BME280;69682;52.138;5.440;2023-11-18T08:36:23;102168.22;;;5.11;93.91
80184;BME280;69682;52.138;5.440;2023-11-18T08:38:53;102163.75;;;5.13;94.07
80184;BME280;69682;52.138;5.440;2023-11-18T08:41:22;102158.41;;;5.14;94.27
80184;BME280;69682;52.138;5.440;2023-11-18T08:43:49;102147.84;;;5.14;93.88
80184;BME280;69682;52.138;5.440;2023-11-18T08:46:16;102146.84;;;5.18;93.94
80184;BME280;69682;52.138;5.440;2023-11-18T08:48:42;102146.75;;;5.21;94.36
80184;BME280;69682;52.138;5.440;2023-11-18T08:51:10;102144.84;;;5.25;94.52
80184;BME280;69682;52.138;5.440;2023-11-18T08:53:39;102147.47;;;5.27;94.01
80184;BME280;69682;52.138;5.440;2023-11-18T08:56:09;102146.47;;;5.29;94.43
80184;BME280;69682;52.138;5.440;2023-11-18T08:58:42;102137.59;;;5.32;94.29
80184;BME280;69682;52.138;5.440;2023-11-18T09:01:09;102133.13;;;5.34;93.80
80184;BME280;69682;52.138;5.440;2023-11-18T09:03:42;102131.19;;;5.39;94.06
80184;BME280;69682;52.138;5.440;2023-11-18T09:06:19;102132.81;;;5.43;93.95
80184;BME280;69682;52.138;5.440;2023-11-18T09:08:52;102120.41;;;5.45;93.97
80184;BME280;69682;52.138;5.440;2023-11-18T09:11:24;102101.81;;;5.48;93.24
80184;BME280;69682;52.138;5.440;2023-11-18T09:13:56;102102.66;;;5.49;93.67
80184;BME280;69682;52.138;5.440;2023-11-18T09:16:27;102103.47;;;5.51;93.62
80184;BME280;69682;52.138;5.440;2023-11-18T09:18:56;102096.34;;;5.53;93.62
80184;BME280;69682;52.138;5.440;2023-11-18T09:21:26;102090.16;;;5.54;94.09
80184;BME280;69682;52.138;5.440;2023-11-18T09:23:56;102081.19;;;5.58;94.30
80184;BME280;69682;52.138;5.440;2023-11-18T09:26:23;102080.25;;;5.59;93.65
80184;BME280;69682;52.138;5.440;2023-11-18T09:28:52;102076.75;;;5.58;93.28
80184;BME280;69682;52.138;5.440;2023-11-18T09:31:20;102066.19;;;5.58;92.97
80184;BME280;69682;52.138;5.440;2023-11-18T09:33:48;102063.50;;;5.60;93.41
80184;BME280;69682;52.138;5.440;2023-11-18T09:36:20;102070.47;;;5.62;93.88
80184;BME280;69682;52.138;5.440;2023-11-18T09:38:48;102058.09;;;5.63;93.52
80184;BME280;69682;52.138;5.440;2023-11-18T09:41:16;102049.25;;;5.64;94.15
80184;BME280;69682;52.138;5.440;2023-11-18T09:43:43;102040.47;;;5.63;93.94
80184;BME280;69682;52.138;5.440;2023-11-18T09:46:28;102035.97;;;5.65;93.38
80184;BME280;69682;52.138;5.440;2023-11-18T09:49:22;102018.25;;;5.67;94.09
80184;BME280;69682;52.138;5.440;2023-11-18T09:52:03;102023.50;;;5.69;93.04
80184;BME280;69682;52.138;5.440;2023-11-18T09:54:50;102023.44;;;5.70;93.39
80184;BME280;69682;52.138;5.440;2023-11-18T09:57:36;102030.50;;;5.70;93.19
80184;BME280;69682;52.138;5.440;2023-11-18T10:00:07;102033.97;;;5.72;92.68
80184;BME280;69682;52.138;5.440;2023-11-18T10:02:48;102040.00;;;5.76;92.93
80184;BME280;69682;52.138;5.440;2023-11-18T10:05:17;102027.63;;;5.76;93.11
80184;BME280;69682;52.138;5.440;2023-11-18T10:07:49;102034.66;;;5.77;94.13
80184;BME280;69682;52.138;5.440;2023-11-18T10:10:16;102039.09;;;5.77;93.32
80184;BME280;69682;52.138;5.440;2023-11-18T10:12:47;102034.72;;;5.76;93.40
80184;BME280;69682;52.138;5.440;2023-11-18T10:15:25;102020.72;;;5.74;93.35
80184;BME280;69682;52.138;5.440;2023-11-18T10:17:54;102020.59;;;5.77;94.50
80184;BME280;69682;52.138;5.440;2023-11-18T10:23:13;102017.94;;;5.77;94.10
80184;BME280;69682;52.138;5.440;2023-11-18T10:25:49;102015.22;;;5.78;94.29
80184;BME280;69682;52.138;5.440;2023-11-18T10:28:30;102013.41;;;5.80;94.41
80184;BME280;69682;52.138;5.440;2023-11-18T10:31:00;102017.75;;;5.81;94.32
80184;BME280;69682;52.138;5.440;2023-11-18T10:33:31;102023.06;;;5.81;94.17
80184;BME280;69682;52.138;5.440;2023-11-18T10:35:59;102023.00;;;5.83;93.79
80184;BME280;69682;52.138;5.440;2023-11-18T10:38:30;102007.06;;;5.84;94.03
80184;BME280;69682;52.138;5.440;2023-11-18T10:40:59;101990.31;;;5.85;93.87
80184;BME280;69682;52.138;5.440;2023-11-18T10:43:28;101991.16;;;5.86;94.17
80184;BME280;69682;52.138;5.440;2023-11-18T10:46:09;101983.22;;;5.86;94.94
80184;BME280;69682;52.138;5.440;2023-11-18T10:48:44;101978.78;;;5.86;94.16
80184;BME280;69682;52.138;5.440;2023-11-18T10:51:15;101974.34;;;5.87;94.90
80184;BME280;69682;52.138;5.440;2023-11-18T10:53:42;101965.50;;;5.88;94.22
80184;BME280;69682;52.138;5.440;2023-11-18T10:56:30;101964.50;;;5.90;94.64
80184;BME280;69682;52.138;5.440;2023-11-18T10:59:06;101960.91;;;5.93;94.71
80184;BME280;69682;52.138;5.440;2023-11-18T11:01:34;101952.09;;;5.92;94.08
80184;BME280;69682;52.138;5.440;2023-11-18T11:04:05;101950.22;;;5.96;94.59
80184;BME280;69682;52.138;5.440;2023-11-18T11:06:33;101947.56;;;5.96;94.38
80184;BME280;69682;52.138;5.440;2023-11-18T11:09:00;101950.22;;;5.96;94.60
80184;BME280;69682;52.138;5.440;2023-11-18T11:11:39;101953.69;;;5.98;94.63
80184;BME280;69682;52.138;5.440;2023-11-18T11:14:06;101951.91;;;5.99;94.05
80184;BME280;69682;52.138;5.440;2023-11-18T11:16:40;101944.81;;;5.99;95.06
80184;BME280;69682;52.138;5.440;2023-11-18T11:19:26;101929.75;;;6.01;94.25
80184;BME280;69682;52.138;5.440;2023-11-18T11:22:07;101899.72;;;6.02;94.54
80184;BME280;69682;52.138;5.440;2023-11-18T11:25:03;101882.06;;;6.03;94.97
80184;BME280;69682;52.138;5.440;2023-11-18T11:27:41;101865.28;;;6.04;94.92
80184;BME280;69682;52.138;5.440;2023-11-18T11:30:28;101839.59;;;6.06;94.49
80184;BME280;69682;52.138;5.440;2023-11-18T11:33:09;101821.03;;;6.07;94.85
80184;BME280;69682;52.138;5.440;2023-11-18T11:35:43;101800.59;;;6.11;95.71
80184;BME280;69682;52.138;5.440;2023-11-18T11:38:13;101812.00;;;6.13;94.71
80184;BME280;69682;52.138;5.440;2023-11-18T11:40:44;101806.56;;;6.16;95.22
80184;BME280;69682;52.138;5.440;2023-11-18T11:43:12;101801.28;;;6.16;95.01
80184;BME280;69682;52.138;5.440;2023-11-18T11:45:42;101808.22;;;6.19;95.06
80184;BME280;69682;52.138;5.440;2023-11-18T11:48:09;101795.81;;;6.21;94.67
80184;BME280;69682;52.138;5.440;2023-11-18T11:50:54;101798.22;;;6.25;95.11
80184;BME280;69682;52.138;5.440;2023-11-18T11:53:26;101796.53;;;6.24;94.59
80184;BME280;69682;52.138;5.440;2023-11-18T11:55:56;101770.91;;;6.25;94.88
80184;BME280;69682;52.138;5.440;2023-11-18T11:58:35;101747.81;;;6.28;94.54
80184;BME280;69682;52.138;5.440;2023-11-18T12:01:25;101742.38;;;6.31;95.06
80184;BME280;69682;52.138;5.440;2023-11-18T12:03:57;101746.69;;;6.34;94.77
80184;BME280;69682;52.138;5.440;2023-11-18T12:06:26;101749.19;;;6.37;95.11
80184;BME280;69682;52.138;5.440;2023-11-18T12:08:53;101744.72;;;6.39;95.19
80184;BME280;69682;52.138;5.440;2023-11-18T12:11:21;101728.75;;;6.41;94.91
80184;BME280;69682;52.138;5.440;2023-11-18T12:14:06;101725.09;;;6.43;94.96
80184;BME280;69682;52.138;5.440;2023-11-18T12:17:03;101717.88;;;6.47;95.44
80184;BME280;69682;52.138;5.440;2023-11-18T12:19:38;101715.97;;;6.50;95.29
80184;BME280;69682;52.138;5.440;2023-11-18T12:22:19;101714.91;;;6.54;95.15
80184;BME280;69682;52.138;5.440;2023-11-18T12:33:01;101667.75;;;6.63;95.51
80184;BME280;69682;52.138;5.440;2023-11-18T12:41:34;101651.59;;;6.69;95.41
80184;BME280;69682;52.138;5.440;2023-11-18T12:44:16;101642.63;;;6.71;95.08
80184;BME280;69682;52.138;5.440;2023-11-18T12:46:54;101642.53;;;6.73;95.86
80184;BME280;69682;52.138;5.440;2023-11-18T12:49:23;101630.16;;;6.73;95.19
80184;BME280;69682;52.138;5.440;2023-11-18T12:51:54;101634.53;;;6.74;95.45
80184;BME280;69682;52.138;5.440;2023-11-18T12:54:22;101621.31;;;6.74;95.68
80184;BME280;69682;52.138;5.440;2023-11-18T12:56:51;101591.22;;;6.75;95.48
80184;BME280;69682;52.138;5.440;2023-11-18T12:59:20;101532.03;;;6.76;95.83
80184;BME280;69682;52.138;5.440;2023-11-18T13:01:50;101504.69;;;6.76;95.75
80184;BME280;69682;52.138;5.440;2023-11-18T13:04:24;101520.44;;;6.79;96.34
80184;BME280;69682;52.138;5.440;2023-11-18T13:06:51;101519.66;;;6.77;96.13
80184;BME280;69682;52.138;5.440;2023-11-18T13:09:18;101505.47;;;6.78;95.61
80184;BME280;69682;52.138;5.440;2023-11-18T13:11:59;101522.06;;;6.81;95.93
80184;BME280;69682;52.138;5.440;2023-11-18T13:14:32;101539.69;;;6.82;95.98
80184;BME280;69682;52.138;5.440;2023-11-18T13:17:09;101536.00;;;6.85;95.94
80184;BME280;69682;52.138;5.440;2023-11-18T13:19:39;101519.22;;;6.86;95.92
80184;BME280;69682;52.138;5.440;2023-11-18T13:22:11;101537.59;;;6.89;95.79
80184;BME280;69682;52.138;5.440;2023-11-18T13:24:39;101549.03;;;6.90;95.39
80184;BME280;69682;52.138;5.440;2023-11-18T13:27:08;101541.88;;;6.92;95.74
80184;BME280;69682;52.138;5.440;2023-11-18T13:29:36;101527.69;;;6.93;95.66
80184;BME280;69682;52.138;5.440;2023-11-18T13:32:06;101516.16;;;6.94;95.64